Terminal Aerodrome Forecast
Issued by NWS

Home | Current Version | Previous Version | Text Only | Print | Product List | Glossary On
Versions: 1 2 3 4 5 6 7 8 9 10 11 12
000
FTUS45 KVEF 222320
TAFEED
TAF
KEED 222320Z 2300/2324 02011KT P6SM SCT250
     FM230100 34009KT P6SM BKN250
     FM231400 02010KT P6SM SKC=

USA.gov is the U.S. government's official web portal to all federal, state and local government web resources and services.